• Join FlightAware (Why Join?)
  • Login
  • US Flag 
12:13PM EDT


 

Airport Tracker/Info


-or-


 

Live Flight TrackerFlight Track Log ✈ EJA831 ✈ 12-Feb-2014 ✈ KDBQ - KSDF

Flight Track Log - Related Links

Times and Time Zones

All times are in EST time to prevent confusion due to time zone crossing. See the EJA831 flight status page for this flight to view local times or setup timezone preferences in your user account.

Time Position Orientation Groundspeed Altitude Reporting Facility
EST Latitude Longitude Course Direction KTS MPH feet Rate Location/Type
08:12AM 42.3667 -90.6958 123° Southeast 189 217 3,800  Level Chicago Center
08:13AM 42.3200 -90.6006 123° Southeast 252 290 9,300 4,500 Climbing Chicago Center
08:14AM 42.2664 -90.5336 137° Southeast 263 303 13,100 3,060 Climbing Chicago Center
08:15AM 42.2094 -90.4614 137° Southeast 281 323 15,700 2,400 Climbing Chicago Center
08:16AM 42.1400 -90.3747 137° Southeast 338 389 18,100 2,460 Climbing Chicago Center
08:17AM 42.0681 -90.2856 137° Southeast 351 404 20,800 2,580 Climbing Chicago Center
08:18AM 41.9967 -90.1947 137° Southeast 354 407 23,500 2,640 Climbing Chicago Center
08:19AM 41.9094 -90.0889 138° Southeast 354 407 26,300 2,160 Climbing Chicago Center
08:20AM 41.8344 -89.9958 137° Southeast 366 421 28,000 1,560 Climbing Chicago Center
08:21AM 41.7575 -89.9011 137° Southeast 378 435 29,600 1,440 Climbing Chicago Center
08:22AM 41.6769 -89.8036 138° Southeast 386 444 31,000 660 Climbing Chicago Center
08:23AM 41.5931 -89.7008 137° Southeast 401 461 31,000  Level Chicago Center
08:25AM 41.5036 -89.5922 138° Southeast 423 487 31,000  Level Chicago Center
08:26AM 41.3961 -89.4608 137° Southeast 432 497 31,000  Level Chicago Center
08:27AM 41.3089 -89.3553 138° Southeast 424 488 31,000  Level Chicago Center
08:28AM 41.2197 -89.2483 138° Southeast 428 493 31,000  Level Chicago Center
08:29AM 41.1331 -89.1461 138° Southeast 424 488 31,000  Level Chicago Center
08:30AM 41.0461 -89.0425 138° Southeast 424 488 31,000  Level Chicago Center
08:31AM 40.9564 -88.9342 138° Southeast 423 487 31,000  Level Chicago Center
08:32AM 40.8544 -88.8131 138° Southeast 426 490 31,000  Level Chicago Center
08:33AM 40.7656 -88.7083 138° Southeast 431 496 31,000  Level Chicago Center
08:34AM 40.6769 -88.6042 138° Southeast 432 497 31,000  Level Chicago Center
08:35AM 40.5872 -88.5008 139° Southeast 432 497 31,000  Level Chicago Center
08:36AM 40.4986 -88.3953 138° Southeast 432 497 31,000  Level Chicago Center
08:37AM 40.3906 -88.2714 139° Southeast 432 497 31,000  Level Chicago Center
08:38AM 40.3014 -88.1672 138° Southeast 431 496 31,000 -60 Level Chicago Center
08:39AM 40.2114 -88.0642 139° Southeast 431 496 30,900 -1,080 Descending Chicago Center
08:40AM 40.1267 -87.9667 139° Southeast 430 495 28,800 -1,920 Descending Chicago Center
08:41AM 40.0381 -87.8667 139° Southeast 426 490 27,000 -900 Descending Chicago Center
08:42AM 39.9519 -87.7672 138° Southeast 420 483 27,000  Level Chicago Center
08:43AM 39.8458 -87.6475 139° Southeast 423 487 27,000  Level Chicago Center
08:44AM 39.7550 -87.5469 140° Southeast 426 490 27,000  Level Indianapolis Center
08:45AM 39.6647 -87.4472 140° Southeast 427 491 27,000 -300 Level Indianapolis Center
08:46AM 39.5767 -87.3475 139° Southeast 425 489 26,400 -1,260 Descending Indianapolis Center
08:47AM 39.4703 -87.2431 143° Southeast 409 471 24,500 -1,560 Descending Indianapolis Center
08:48AM 39.3731 -87.1986 161° South 377 434 23,300 -1,500 Descending Indianapolis Center
08:49AM 39.2731 -87.1572 162° South 377 434 21,500 -1,620 Descending Indianapolis Center
08:50AM 39.1736 -87.1136 161° South 380 437 20,000 -1,140 Descending Indianapolis Center
08:51AM 39.0761 -87.0717 162° South 376 433 19,200 -840 Descending Indianapolis Center
08:52AM 38.9781 -87.0292 161° South 371 427 18,300 -720 Descending Indianapolis Center
08:53AM 38.8853 -86.9864 160° South 358 412 17,800 -660 Descending Indianapolis Center
08:54AM 38.7958 -86.9233 151° Southeast 360 414 17,000 -840 Descending Indianapolis Center
08:55AM 38.7067 -86.8619 152° Southeast 360 414 16,200 -840 Descending Indianapolis Center
08:56AM 38.6189 -86.8000 151° Southeast 358 412 15,300 -1,320 Descending Indianapolis Center
08:57AM 38.5194 -86.7233 149° Southeast 349 402 13,500 -1,860 Descending Indianapolis Center
08:58AM 38.4753 -86.6156 118° Southeast 341 392 11,600 -1,980 Descending Indianapolis Center
09:00AM 38.4394 -86.5078 113° Southeast 333 383 9,500 -1,860 Descending Indianapolis Center
09:01AM 38.4544 -86.4086 79° East 293 337 7,900 -1,260 Descending Indianapolis Center
09:02AM 38.4672 -86.3072 81° East 288 331 7,000 -480 Descending Indianapolis Center
09:03AM 38.4772 -86.2233 81° East 251 289 7,000  Level Indianapolis Center
09:04AM 38.4675 -86.1425 99° East 249 287 7,000 -180 Level Indianapolis Center
09:05AM 38.4303 -86.0717 124° Southeast 253 291 6,700 -540 Descending Indianapolis Center
09:06AM 38.3753 -86.0231 145° Southeast 241 277 6,000 -360 Descending Indianapolis Center
09:07AM 38.3219 -85.9769 146° Southeast 233 268 6,000  Level Indianapolis Center
09:08AM 38.2664 -85.9319 148° Southeast 233 268 6,000  Level Indianapolis Center
09:09AM 38.2119 -85.8847 146° Southeast 235 270 6,000 -360 Level Indianapolis Center
09:10AM 38.1567 -85.8386 147° Southeast 235 270 5,300 -1,320 Descending Indianapolis Center
09:11AM 38.1047 -85.7953 147° Southeast 228 262 3,400 -1,620 Descending Indianapolis Center
09:12AM 38.1164 -85.7247 78° East 230 265 2,100 -1,260 Descending Indianapolis Center
09:14AM 38.1667 -85.7333 302° West  Level FlightAware Approximate